createdAt,value
2023-01-26T00:01:19.481Z,30.00
2023-01-26T00:04:24.923Z,30.90
2023-01-26T00:07:30.548Z,31.57
2023-01-26T00:10:34.206Z,28.03
2023-01-26T00:13:38.261Z,31.17
2023-01-26T00:16:42.246Z,31.43
2023-01-26T00:19:47.252Z,29.40
2023-01-26T00:22:50.902Z,29.67
2023-01-26T00:25:54.695Z,29.53
2023-01-26T00:28:58.453Z,29.27
2023-01-26T00:32:02.113Z,32.73
2023-01-26T00:35:08.260Z,30.97
2023-01-26T00:38:12.175Z,32.20
2023-01-26T00:41:30.200Z,29.90
2023-01-26T00:44:34.084Z,29.33
2023-01-26T00:47:37.760Z,29.23
2023-01-26T00:50:42.835Z,25.87
2023-01-26T00:53:46.443Z,27.00
2023-01-26T00:56:50.067Z,27.43
2023-01-26T00:59:53.603Z,27.23
2023-01-26T01:03:00.038Z,28.43
2023-01-26T01:06:05.238Z,28.57
2023-01-26T01:09:09.844Z,28.40
2023-01-26T01:12:13.521Z,27.63
2023-01-26T01:15:17.534Z,28.70
2023-01-26T01:18:21.221Z,27.97
2023-01-26T01:21:26.503Z,27.30
2023-01-26T01:24:30.220Z,26.80
2023-01-26T01:27:34.979Z,29.57
2023-01-26T01:30:39.901Z,26.57
2023-01-26T01:33:44.592Z,26.97
2023-01-26T01:36:49.562Z,26.20
2023-01-26T01:39:53.229Z,27.97
2023-01-26T01:42:56.925Z,26.53
2023-01-26T01:46:02.474Z,26.70
2023-01-26T01:49:17.613Z,26.47
2023-01-26T01:52:29.141Z,26.97
2023-01-26T01:55:33.806Z,27.97
2023-01-26T01:58:43.937Z,28.93
2023-01-26T02:01:48.301Z,27.53
2023-01-26T02:04:52.684Z,27.40
2023-01-26T02:07:58.580Z,27.93
2023-01-26T02:11:11.575Z,29.00
2023-01-26T02:14:17.666Z,29.73
2023-01-26T02:17:21.523Z,29.13
2023-01-26T02:20:37.467Z,27.93
2023-01-26T02:24:10.652Z,28.33
2023-01-26T02:27:15.965Z,27.40
2023-01-26T02:30:20.338Z,28.20
2023-01-26T02:33:27.979Z,29.27
2023-01-26T02:36:34.455Z,26.90
2023-01-26T02:39:50.830Z,28.23
2023-01-26T02:42:55.897Z,26.90
2023-01-26T02:45:59.609Z,27.20
2023-01-26T02:49:20.671Z,28.27
2023-01-26T02:52:27.382Z,28.03
2023-01-26T02:55:31.672Z,26.97
2023-01-26T02:58:38.291Z,26.03
2023-01-26T03:01:42.318Z,26.20
2023-01-26T03:04:45.919Z,25.70
2023-01-26T03:07:49.676Z,27.90
2023-01-26T03:10:53.284Z,27.20
2023-01-26T03:13:58.287Z,26.47
2023-01-26T03:17:02.128Z,28.30
2023-01-26T03:20:27.298Z,27.13
2023-01-26T03:23:48.413Z,27.00
2023-01-26T03:27:09.573Z,26.37
2023-01-26T03:30:17.045Z,29.53
2023-01-26T03:33:21.584Z,28.70
2023-01-26T03:36:25.371Z,25.27
2023-01-26T03:39:46.243Z,26.80
2023-01-26T03:43:06.957Z,27.77
2023-01-26T03:46:29.595Z,27.03
2023-01-26T03:49:50.704Z,27.17
2023-01-26T03:53:11.829Z,26.93
2023-01-26T03:56:19.217Z,27.13
2023-01-26T03:59:38.323Z,24.73
2023-01-26T04:03:01.107Z,28.23
2023-01-26T04:06:22.562Z,26.67
2023-01-26T04:09:26.387Z,26.67
2023-01-26T04:12:30.005Z,26.73
2023-01-26T04:15:51.351Z,27.17
2023-01-26T04:19:14.627Z,27.07
2023-01-26T04:22:18.355Z,26.67
2023-01-26T04:25:23.499Z,27.00
2023-01-26T04:28:27.053Z,28.10
2023-01-26T04:31:30.806Z,26.73
2023-01-26T04:34:35.855Z,26.53
2023-01-26T04:37:40.183Z,30.27
2023-01-26T04:40:43.837Z,27.33
2023-01-26T04:43:47.580Z,27.47
2023-01-26T04:46:51.247Z,26.43
2023-01-26T04:49:56.274Z,26.33
2023-01-26T04:53:00.008Z,26.80
2023-01-26T04:56:03.740Z,26.47
2023-01-26T04:59:09.317Z,27.60
2023-01-26T05:02:12.983Z,25.60
2023-01-26T05:05:18.488Z,26.10
2023-01-26T05:08:23.368Z,24.90
2023-01-26T05:11:27.556Z,24.57
2023-01-26T05:14:31.160Z,25.03
2023-01-26T05:17:36.216Z,26.97
2023-01-26T05:20:41.254Z,21.47
2023-01-26T05:23:44.935Z,24.13
2023-01-26T05:27:08.623Z,22.57
2023-01-26T05:30:14.848Z,22.73
2023-01-26T05:33:22.120Z,22.67
2023-01-26T05:36:27.117Z,23.17
2023-01-26T05:39:30.789Z,23.23
2023-01-26T05:42:34.580Z,21.43
2023-01-26T05:45:40.466Z,21.93
2023-01-26T05:48:44.245Z,20.53
2023-01-26T05:51:49.818Z,21.77
2023-01-26T05:54:53.546Z,22.47
2023-01-26T05:57:57.216Z,21.23
2023-01-26T06:01:05.354Z,20.87
2023-01-26T06:04:09.634Z,19.67
2023-01-26T06:07:14.759Z,21.30
2023-01-26T06:10:19.025Z,19.20
2023-01-26T06:13:22.613Z,19.40
2023-01-26T06:16:26.513Z,19.60
2023-01-26T06:19:30.377Z,17.93
2023-01-26T06:22:35.596Z,16.37
2023-01-26T06:25:40.383Z,16.67
2023-01-26T06:28:44.321Z,16.53
2023-01-26T06:31:48.073Z,18.07
2023-01-26T06:34:53.369Z,15.20
2023-01-26T06:37:58.371Z,16.90
2023-01-26T06:41:03.496Z,15.67
2023-01-26T06:44:07.361Z,15.33
2023-01-26T06:47:12.368Z,14.83
2023-01-26T06:50:17.587Z,15.37
2023-01-26T06:53:34.326Z,14.80
2023-01-26T06:56:38.188Z,13.67
2023-01-26T06:59:41.849Z,14.10
2023-01-26T07:02:45.458Z,14.60
2023-01-26T07:05:49.085Z,12.70
2023-01-26T07:08:54.065Z,12.23
2023-01-26T07:11:57.691Z,12.20
2023-01-26T07:15:01.228Z,13.60
2023-01-26T07:18:05.064Z,11.97
2023-01-26T07:21:13.339Z,13.23
2023-01-26T07:24:19.515Z,13.13
2023-01-26T07:27:23.130Z,11.50
2023-01-26T07:30:27.665Z,11.93
2023-01-26T07:33:31.755Z,11.83
2023-01-26T07:36:35.397Z,11.60
2023-01-26T07:39:41.605Z,13.10
2023-01-26T07:42:45.224Z,12.63
2023-01-26T07:45:51.458Z,10.97
2023-01-26T07:48:55.197Z,12.03
2023-01-26T07:51:58.863Z,11.03
2023-01-26T07:55:03.967Z,11.93
2023-01-26T07:58:07.563Z,12.40
2023-01-26T08:01:13.474Z,10.97
2023-01-26T08:04:17.734Z,12.10
2023-01-26T08:07:21.389Z,11.03
2023-01-26T08:10:26.599Z,11.83
2023-01-26T08:13:35.728Z,10.90
2023-01-26T08:16:39.855Z,12.03
2023-01-26T08:19:43.508Z,11.93
2023-01-26T08:22:47.104Z,12.97
2023-01-26T08:25:52.306Z,10.70
2023-01-26T08:28:56.015Z,10.37
2023-01-26T08:31:59.736Z,10.83
2023-01-26T08:35:03.369Z,12.00
2023-01-26T08:38:07.141Z,12.03
2023-01-26T08:41:13.403Z,11.07
2023-01-26T08:44:17.573Z,10.73
2023-01-26T08:47:21.409Z,12.03
2023-01-26T08:50:25.863Z,9.97
2023-01-26T08:53:33.289Z,10.27
2023-01-26T08:56:38.465Z,10.40
2023-01-26T08:59:42.036Z,11.30
2023-01-26T09:02:45.943Z,11.10
2023-01-26T09:05:49.854Z,9.90
2023-01-26T09:08:53.521Z,10.53
2023-01-26T09:11:58.921Z,10.50
2023-01-26T09:15:02.661Z,10.93
2023-01-26T09:18:07.323Z,11.60
2023-01-26T09:21:12.513Z,9.80
2023-01-26T09:24:16.224Z,9.97
2023-01-26T09:27:21.499Z,11.30
2023-01-26T09:30:25.845Z,11.10
2023-01-26T09:33:29.645Z,11.50
2023-01-26T09:36:33.612Z,12.47
2023-01-26T09:39:37.365Z,12.20
2023-01-26T09:42:58.972Z,11.63
2023-01-26T09:46:21.835Z,11.67
2023-01-26T09:49:34.849Z,12.93
2023-01-26T09:52:51.391Z,13.37
2023-01-26T09:55:57.289Z,11.90
2023-01-26T09:59:12.679Z,14.73
2023-01-26T10:02:43.314Z,14.83
2023-01-26T10:05:55.586Z,15.43
2023-01-26T10:09:04.495Z,15.90
2023-01-26T10:12:19.535Z,16.47
2023-01-26T10:15:43.372Z,17.93
2023-01-26T10:18:57.335Z,16.80
2023-01-26T10:22:08.806Z,18.13
2023-01-26T10:25:18.510Z,19.40
2023-01-26T10:28:30.389Z,18.63
2023-01-26T10:31:36.386Z,20.10
2023-01-26T10:34:41.168Z,19.20
2023-01-26T10:37:44.915Z,16.97
2023-01-26T10:40:48.572Z,16.40
2023-01-26T10:43:55.606Z,20.07
2023-01-26T10:47:16.008Z,20.17
2023-01-26T10:50:24.904Z,20.40
2023-01-26T10:53:30.661Z,19.90
2023-01-26T10:56:38.067Z,19.60
2023-01-26T10:59:50.031Z,20.40
2023-01-26T11:03:00.347Z,18.70
2023-01-26T11:06:16.120Z,19.83
2023-01-26T11:09:25.983Z,18.53
2023-01-26T11:12:29.573Z,19.17
2023-01-26T11:15:39.878Z,20.80
2023-01-26T11:19:00.206Z,21.33
2023-01-26T11:22:12.892Z,21.30
2023-01-26T11:25:27.375Z,18.60
2023-01-26T11:28:52.201Z,21.33
2023-01-26T11:32:07.394Z,19.93
2023-01-26T11:35:29.660Z,19.03
2023-01-26T11:38:41.259Z,18.97
2023-01-26T11:42:06.388Z,18.60
2023-01-26T11:45:28.425Z,19.93
2023-01-26T11:48:49.642Z,17.23
2023-01-26T11:52:11.244Z,18.47
2023-01-26T11:55:37.144Z,17.80
2023-01-26T11:58:47.888Z,18.70
2023-01-26T12:02:00.291Z,17.93
2023-01-26T12:05:17.585Z,20.30
2023-01-26T12:08:38.347Z,19.40
2023-01-26T12:11:53.329Z,18.57
2023-01-26T12:15:06.669Z,15.77
2023-01-26T12:18:18.116Z,19.70
2023-01-26T12:21:23.869Z,17.97
2023-01-26T12:25:08.322Z,17.17
2023-01-26T12:28:18.099Z,18.13
2023-01-26T12:31:33.384Z,18.93
2023-01-26T12:34:37.426Z,18.57
2023-01-26T12:37:54.017Z,17.63
2023-01-26T12:41:14.610Z,19.07
2023-01-26T12:44:36.817Z,16.70
2023-01-26T12:47:48.230Z,14.87
2023-01-26T12:51:00.526Z,16.13
2023-01-26T12:54:16.206Z,15.30
2023-01-26T12:57:29.989Z,15.40
2023-01-26T13:00:38.934Z,13.90
2023-01-26T13:03:47.027Z,14.13
2023-01-26T13:07:04.716Z,13.23
2023-01-26T13:10:46.017Z,13.13
2023-01-26T13:13:58.767Z,13.10
2023-01-26T13:17:42.983Z,13.43
2023-01-26T13:20:48.926Z,14.23
2023-01-26T13:23:53.123Z,12.97
2023-01-26T13:26:58.400Z,13.43
2023-01-26T13:30:04.584Z,11.37
2023-01-26T13:33:18.146Z,12.90
2023-01-26T13:36:25.202Z,18.93
2023-01-26T13:39:35.643Z,11.90
2023-01-26T13:42:53.538Z,12.73
2023-01-26T13:46:18.914Z,11.67
2023-01-26T13:49:28.442Z,12.90
2023-01-26T13:52:32.061Z,12.10
2023-01-26T13:55:40.768Z,13.30
2023-01-26T13:58:44.587Z,11.63
2023-01-26T14:01:53.411Z,12.30
2023-01-26T14:04:59.535Z,12.20
2023-01-26T14:08:05.198Z,13.03
2023-01-26T14:11:20.013Z,12.53
2023-01-26T14:14:28.908Z,13.13
2023-01-26T14:17:37.533Z,12.93
2023-01-26T14:20:42.266Z,11.43
2023-01-26T14:23:45.971Z,12.10
2023-01-26T14:26:50.264Z,12.00
2023-01-26T14:29:53.853Z,11.57
2023-01-26T14:33:07.524Z,11.10
2023-01-26T14:36:19.888Z,12.60
2023-01-26T14:39:23.692Z,11.87
2023-01-26T14:42:27.795Z,11.30
2023-01-26T14:45:47.070Z,12.30
2023-01-26T14:48:58.237Z,13.43
2023-01-26T14:52:02.868Z,11.87
2023-01-26T14:55:14.649Z,13.37
2023-01-26T14:58:25.686Z,12.27
2023-01-26T15:01:30.447Z,13.73
2023-01-26T15:04:43.152Z,14.23
2023-01-26T15:07:52.024Z,13.47
2023-01-26T15:11:18.330Z,14.60
2023-01-26T15:14:34.861Z,12.77
2023-01-26T15:17:41.230Z,12.63
2023-01-26T15:21:00.529Z,12.63
2023-01-26T15:24:05.967Z,11.63
2023-01-26T15:27:13.224Z,12.87
2023-01-26T15:30:20.815Z,12.37
2023-01-26T15:33:41.571Z,11.07
2023-01-26T15:36:52.029Z,11.80
2023-01-26T15:39:55.700Z,11.77
2023-01-26T15:43:23.227Z,10.93
2023-01-26T15:46:27.493Z,9.70
2023-01-26T15:49:31.244Z,10.03
2023-01-26T15:52:36.486Z,10.30
2023-01-26T15:55:41.052Z,8.47
2023-01-26T15:58:45.033Z,7.87
2023-01-26T16:01:49.031Z,5.63
2023-01-26T16:04:52.816Z,4.73
2023-01-26T16:07:57.826Z,3.57
2023-01-26T16:11:01.467Z,3.13
2023-01-26T16:14:05.418Z,2.50
2023-01-26T16:17:15.724Z,2.77
2023-01-26T16:20:20.357Z,2.70
2023-01-26T16:23:28.713Z,2.83
2023-01-26T16:26:33.640Z,2.43
2023-01-26T16:29:37.591Z,3.00
2023-01-26T16:32:42.542Z,2.00
2023-01-26T16:35:46.080Z,1.87
2023-01-26T16:38:51.330Z,2.63
2023-01-26T16:41:54.940Z,2.07
2023-01-26T16:44:59.095Z,2.43
2023-01-26T16:48:02.676Z,2.20
2023-01-26T16:51:20.323Z,1.90
2023-01-26T16:54:25.313Z,1.67
2023-01-26T16:57:28.923Z,2.43
2023-01-26T17:00:32.574Z,2.67
2023-01-26T17:03:36.108Z,2.10
2023-01-26T17:06:39.790Z,2.30
2023-01-26T17:09:44.818Z,3.40
2023-01-26T17:12:48.430Z,2.30
2023-01-26T17:15:52.202Z,2.20
2023-01-26T17:18:56.024Z,3.27
2023-01-26T17:21:59.643Z,2.37
2023-01-26T17:25:04.951Z,2.80
2023-01-26T17:28:08.581Z,2.33
2023-01-26T17:31:17.843Z,3.43
2023-01-26T17:34:22.342Z,2.40
2023-01-26T17:37:30.833Z,3.00
2023-01-26T17:40:36.811Z,2.60
2023-01-26T17:43:40.493Z,2.23
2023-01-26T17:46:44.142Z,2.33
2023-01-26T17:49:47.886Z,2.80
2023-01-26T17:52:51.484Z,6.93
2023-01-26T17:55:56.736Z,5.80
2023-01-26T17:59:00.412Z,3.20
2023-01-26T18:02:04.252Z,3.00
2023-01-26T18:05:10.423Z,3.27
2023-01-26T18:08:14.344Z,3.83
2023-01-26T18:11:19.438Z,5.60
2023-01-26T18:14:23.435Z,4.63
2023-01-26T18:17:27.044Z,7.00
2023-01-26T18:20:30.700Z,11.40
2023-01-26T18:23:34.369Z,3.80
2023-01-26T18:26:40.336Z,7.93
2023-01-26T18:29:44.051Z,12.13
2023-01-26T18:32:47.664Z,9.73
2023-01-26T18:35:51.255Z,5.23
2023-01-26T18:38:57.884Z,10.83
2023-01-26T18:42:02.858Z,8.97
2023-01-26T18:45:23.151Z,11.07
2023-01-26T18:48:26.765Z,6.23
2023-01-26T18:51:32.400Z,6.30
2023-01-26T18:54:36.011Z,5.40
2023-01-26T18:57:41.345Z,5.80
2023-01-26T19:00:44.969Z,5.40
2023-01-26T19:03:54.268Z,6.10
2023-01-26T19:06:58.251Z,5.40
2023-01-26T19:10:01.982Z,6.10
2023-01-26T19:13:07.489Z,6.87
2023-01-26T19:16:11.454Z,6.90
2023-01-26T19:19:15.144Z,7.60
2023-01-26T19:22:18.853Z,7.87
2023-01-26T19:25:23.092Z,7.57
2023-01-26T19:28:28.154Z,7.87
2023-01-26T19:31:32.136Z,8.63
2023-01-26T19:34:35.951Z,8.37
2023-01-26T19:37:39.605Z,8.07
2023-01-26T19:40:47.417Z,7.37
2023-01-26T19:43:52.987Z,6.93
2023-01-26T19:46:56.671Z,8.27
2023-01-26T19:50:00.360Z,8.40
2023-01-26T19:53:04.046Z,8.13
2023-01-26T19:56:10.984Z,7.60
2023-01-26T19:59:16.056Z,8.10
2023-01-26T20:02:19.877Z,8.13
2023-01-26T20:05:23.559Z,7.40
2023-01-26T20:08:29.225Z,8.13
2023-01-26T20:11:34.155Z,8.97
2023-01-26T20:14:39.216Z,8.27
2023-01-26T20:17:43.153Z,9.10
2023-01-26T20:20:51.383Z,7.33
2023-01-26T20:23:56.117Z,8.27
2023-01-26T20:27:00.037Z,7.10
2023-01-26T20:30:06.368Z,8.70
2023-01-26T20:33:09.950Z,7.73
2023-01-26T20:36:16.701Z,9.00
2023-01-26T20:39:25.085Z,9.70
2023-01-26T20:42:30.017Z,10.47
2023-01-26T20:45:43.109Z,10.43
2023-01-26T20:48:47.075Z,12.40
2023-01-26T20:51:51.048Z,12.33
2023-01-26T20:54:55.114Z,10.17
2023-01-26T20:57:58.745Z,8.83
2023-01-26T21:01:06.801Z,9.07
2023-01-26T21:04:10.511Z,9.33
2023-01-26T21:07:14.790Z,8.80
2023-01-26T21:10:18.712Z,10.43
2023-01-26T21:13:22.759Z,9.17
2023-01-26T21:16:28.088Z,9.03
2023-01-26T21:19:31.921Z,8.30
2023-01-26T21:22:35.680Z,9.00
2023-01-26T21:25:39.394Z,8.67
2023-01-26T21:28:43.013Z,8.37
2023-01-26T21:31:49.078Z,8.37
2023-01-26T21:34:52.845Z,8.40
2023-01-26T21:37:56.617Z,9.70
2023-01-26T21:41:01.265Z,9.27
2023-01-26T21:44:07.798Z,8.47
2023-01-26T21:47:12.819Z,9.53
2023-01-26T21:50:36.932Z,9.33
2023-01-26T21:53:39.545Z,9.10
2023-01-26T21:56:43.473Z,8.40
2023-01-26T21:59:46.036Z,8.67
2023-01-26T22:02:51.100Z,8.77
2023-01-26T22:05:54.705Z,9.10
2023-01-26T22:08:59.363Z,8.60
2023-01-26T22:12:03.258Z,8.50
2023-01-26T22:15:26.039Z,9.40
2023-01-26T22:18:31.084Z,8.97
2023-01-26T22:21:34.695Z,9.30
2023-01-26T22:24:38.259Z,8.97
2023-01-26T22:27:42.158Z,9.37
2023-01-26T22:30:45.760Z,9.17
2023-01-26T22:33:51.474Z,8.67
2023-01-26T22:36:54.987Z,9.90
2023-01-26T22:39:59.317Z,9.50
2023-01-26T22:43:02.933Z,10.43
2023-01-26T22:46:10.153Z,8.67
2023-01-26T22:49:15.282Z,9.50
2023-01-26T22:52:18.904Z,8.77
2023-01-26T22:55:22.536Z,9.17
2023-01-26T22:58:26.161Z,9.43
2023-01-26T23:01:32.435Z,9.20
2023-01-26T23:04:37.661Z,8.43
2023-01-26T23:07:41.387Z,8.63
2023-01-26T23:10:44.980Z,8.53
2023-01-26T23:13:51.070Z,9.20
2023-01-26T23:16:56.384Z,7.73
2023-01-26T23:20:01.474Z,7.60
2023-01-26T23:23:05.239Z,8.53
2023-01-26T23:26:10.491Z,7.90
2023-01-26T23:29:14.303Z,7.60
2023-01-26T23:32:18.091Z,7.73
2023-01-26T23:35:25.481Z,7.50
2023-01-26T23:38:32.325Z,8.30
2023-01-26T23:41:36.055Z,7.20
2023-01-26T23:44:40.939Z,6.57
2023-01-26T23:47:44.543Z,6.23
2023-01-26T23:50:49.563Z,6.63
2023-01-26T23:53:53.161Z,6.20
2023-01-26T23:56:56.957Z,5.90
